Pays
Station

 

Conditions  météo  pour  Tivat  -  Yougoslavie    Yougoslavie

  
29 °C
    
 
 

METAR pour Tivat :

LYTV 231730Z 00000KT CAVOK 29/17 Q1015 NOSIG

 

Voici le bulletin pour Tivat - Yougoslavie.
 
Le bulletin a été fait il y a 13 minutes, à 17:30 UTC .
Le vent était calme.
 
La température était de 29 °C, avec un point de rosée à 17 °C.
La température ressentie était de 29 °C.
 
La pression atmosphérique était de 1015 hPa.
L'humidité relative était de 48.4%.
 
Il y avait pas de nuages en-dessous de 1500 mètres et pas de cumulonimbus.
 
La visibilité globale était de supérieure à 10 kilomètres.
 

 
 
 

Pays :   A   B   C   D   E   F   G   H   I   J   K   L   M   N   O   P   Q   R   S   T   U   V   W   Y   Z

 

Partenaires :  Info Météo avec Met'info
Météo Marine avec MeteoMarine.net
Infos Site  |  Infos Légales  |  Crédits  |  Confidentialité
Contactez-nous  |  Ajouter aux favoris
© 2013-2019 METAR - Tous droits réservés